Unicom:                    122.8

AWOS:                  118.275

Elevation           1458’ MSL

TPA:                   2500’ MSL

06/24:         5003’ L   75’ W

PAPI:       06/Left     24/Left

(Operate lights on unicom freq.)

Traffic Pattern: Left

Beacon: Sunset to Sunrise

Windsock: yes, lighted

Segmented Circle: No

 

Cleveland Center: 126.72/291.65

FSS: Altoona

[Source: ADDS]
METAR
KFKL 152356Z AUTO 09004KT 10SM OVC020 18/16 A3004 RMK AO2 SLP169 T01830161 10211 20183 53008 $ =
KFKL 152326Z 1600/1624 10007KT P6SM VCSH OVC020 FM160300 10007KT P6SM VCSH OVC035 TEMPO 1608/1612 -SHRA BKN030 FM161400 09006KT P6SM BKN050
TAF
KFKL 152326Z 1600/1624 10007KT P6SM VCSH OVC020 FM160300 10007KT P6SM VCSH OVC035 TEMPO 1608/1612 -SHRA BKN030 FM161400 09006KT P6SM BKN050 =
[Source: ADDS]
METAR
KDUJ 160033Z AUTO 06003KT 10SM OVC031 17/15 A3004 RMK AO2 RAE00 P0000 T01670150 =
KDUJ 152352Z 1600/1624 10005KT P6SM VCSH OVC015 FM160400 11006KT P6SM VCSH OVC025 FM160700 10006KT P6SM BKN035 TEMPO 1607/1611 5SM -SHRA FM161300 07005KT P6SM VCSH BKN050
TAF
KDUJ 152352Z 1600/1624 10005KT P6SM VCSH OVC015 FM160400 11006KT P6SM VCSH OVC025 FM160700 10006KT P6SM BKN035 TEMPO 1607/1611 5SM -SHRA FM161300 07005KT P6SM VCSH BKN050 =

Welcome to Clarion County Airport.

We look forward to serving all of your aviation needs.


Clarion County Airport is a General Aviation, Business Class airport serving the Clarion County Area in Central Western Pennsylvania.  Our 5,003' asphalt runway and gps approaches are capable of serving most of the general aviation fleet in most weather conditions.


If you are planning a fuel stop while flying in Western Pennsylvania, consider paying us a visit. Our prices are some of the lowest in the state Check prices here ----> www.airnav.com/fuel and enter identifier KAXQ or see current prices below. We can have you fueled and taxiing out to the runway in about 10 minutes. Our current hours of operation are Monday- Sunday 8:00AM-4:00PM. Holiday closures are Christmas Day and Thanksgiving. If you require use of the facilities during the holidays or after hours please call ahead and someone will be there to assist you.


- Airport Manager -  


                             CURRENT FUEL PRICES       JET-A w/additive    $5.90           100LL     $6.43 


                              Self Service fueling available 24/7, credit card reader enabled. Center point fueling available upon request.

                                                           For after hours fueling assistance please contact 814-221-1048